P52 weather

Cottonwood Airport
Cottonwood, Arizona, United States

Public forecast

Using degrees Fahrenheit for public forecast. Weather courtesy of forecast.io.

METAR (pilot weather report)

Closest report is Sedona Airport, 14.1 nm (26.1 km) ENE. Retrieved 2019/06/17 11:35 UTC (0 seconds ago):

KSEZ 171135Z AUTO 04006KT 10SM CLR 20/05 A3000 RMK AO2

TAF (pilot weather forecast)

Closest forecast is Sedona Airport, 14.1 nm (26.1 km) ENE. Retrieved 2019/06/17 06:33 UTC (5 hours ago):

TAF KSEZ 170530Z 1706/1806 04012KT P6SM SCT120 FM171700 19009KT P6SM SCT250 FM180300 04006KT P6SM FEW200